X  CloseMetar Aviation Weather Data     EBBR Brussels

Temperature

6°C Temperature

3°C Dewpoint

81% Humidity



Wind

19 KM/H

12 MPH

 5 M/S

10 KTS



140°
South East
Current Conditions

Clear Clear
Pressure 995.92 (hPa) - 29.41 (in)
Visibility 6.2 (mi) - 10 (km)
Airport
Airport-code EBBR

Location Brussels 14 (km)

Metar:
EBBR 140520Z 14010KT CAVOK 06/03 Q0996 NOSIG

Time: 14-11-2019 06:20